Time;durP1;ratioP1;P1;durP2;ratioP2;P2;SDS_P1;SDS_P2;PMS_P1;PMS_P2;Temp;Humidity;BMP_temperature;BMP_pressure;BME280_temperature;BME280_humidity;BME280_pressure;Samples;Min_cycle;Max_cycle;Signal;HPM_P1;HPM_P2
2022/03/10 00:13:21;;;;;;;12.37;7.03;;;1.30;55.70;;;;;;4964215;28;20286;-88
2022/03/10 00:15:49;;;;;;;14.57;7.10;;;1.30;54.80;;;;;;4972334;28;20234;-88
2022/03/10 00:18:18;;;;;;;11.07;6.57;;;1.30;56.20;;;;;;4976261;28;20306;-87
2022/03/10 00:20:45;;;;;;;10.17;6.23;;;1.20;54.60;;;;;;4985651;28;20665;-88
2022/03/10 00:23:20;;;;;;;12.97;6.53;;;1.20;55.40;;;;;;4980422;28;20234;-89
2022/03/10 00:25:49;;;;;;;13.23;6.97;;;1.20;56.10;;;;;;4985481;28;20611;-88
2022/03/10 00:28:29;;;;;;;10.37;6.40;;;1.10;56.40;;;;;;4982992;28;20238;-89
2022/03/10 00:34:42;;;;;;;9.90;6.20;;;1.10;56.90;;;;;;4981186;28;20222;-86
2022/03/10 00:37:09;;;;;;;9.67;6.37;;;1.10;56.80;;;;;;4969314;28;20273;-86
2022/03/10 00:39:37;;;;;;;13.57;5.73;;;1.00;56.50;;;;;;4975804;28;20272;-87
2022/03/10 00:42:06;;;;;;;7.43;5.20;;;1.00;56.10;;;;;;4982399;28;20237;-87
2022/03/10 00:44:46;;;;;;;8.57;5.00;;;0.90;55.80;;;;;;4983922;28;20203;-87
2022/03/10 00:47:13;;;;;;;8.17;5.47;;;0.90;55.50;;;;;;4983147;28;20238;-86
2022/03/10 00:52:16;;;;;;;10.80;6.40;;;0.80;55.60;;;;;;5520061;22;20334;-86
2022/03/10 00:54:43;;;;;;;11.87;5.40;;;0.80;56.40;;;;;;5003448;28;20221;-86
2022/03/10 00:57:11;;;;;;;11.77;5.63;;;0.80;56.80;;;;;;5002765;28;20190;-87
2022/03/10 01:03:00;;;;;;;7.60;4.77;;;0.90;56.50;;;;;;5024074;28;20235;-87
2022/03/10 01:05:27;;;;;;;6.83;5.07;;;0.90;55.90;;;;;;5013003;28;20711;-87
2022/03/10 01:08:42;;;;;;;6.83;4.57;;;0.80;56.00;;;;;;5002264;28;20325;-87
2022/03/10 01:11:09;;;;;;;8.40;5.37;;;0.70;57.40;;;;;;4982920;28;20199;-86
2022/03/10 01:13:55;;;;;;;7.90;4.80;;;0.70;58.20;;;;;;4997707;28;20285;-87
2022/03/10 01:16:22;;;;;;;6.33;4.77;;;0.70;59.20;;;;;;5001506;28;20188;-86
2022/03/10 01:18:49;;;;;;;5.80;4.40;;;0.70;57.50;;;;;;5001201;28;20704;-87
2022/03/10 01:21:16;;;;;;;9.07;5.30;;;0.70;57.00;;;;;;4995294;28;20201;-86
2022/03/10 01:23:50;;;;;;;8.17;4.93;;;0.60;57.60;;;;;;5001104;28;20226;-86
2022/03/10 01:26:17;;;;;;;6.00;4.80;;;0.60;58.10;;;;;;5001927;28;20186;-86
2022/03/10 01:28:44;;;;;;;6.27;4.63;;;0.60;58.40;;;;;;4994226;28;20589;-87
2022/03/10 01:31:13;;;;;;;6.87;4.83;;;0.70;57.90;;;;;;4995407;28;20198;-89
2022/03/10 01:33:47;;;;;;;6.77;4.63;;;0.70;58.10;;;;;;5001462;28;20335;-87
2022/03/10 01:36:14;;;;;;;8.23;4.87;;;0.60;57.80;;;;;;4997621;28;20650;-86
2022/03/10 01:38:42;;;;;;;6.93;4.77;;;0.60;58.60;;;;;;4983952;28;20306;-86
2022/03/10 01:41:09;;;;;;;8.07;4.97;;;0.60;58.00;;;;;;5012971;28;20215;-89
2022/03/10 01:43:57;;;;;;;9.53;5.17;;;0.60;58.30;;;;;;4983787;28;20242;-87
2022/03/10 01:46:27;;;;;;;8.80;5.10;;;0.60;58.40;;;;;;5000732;28;20196;-86
2022/03/10 01:48:54;;;;;;;8.23;4.87;;;0.60;58.50;;;;;;5000818;28;20275;-89
2022/03/10 01:51:22;;;;;;;7.63;5.00;;;0.50;58.80;;;;;;4999959;28;20286;-88
2022/03/10 01:54:03;;;;;;;6.63;4.80;;;0.40;59.10;;;;;;5001011;28;20254;-87
2022/03/10 01:56:33;;;;;;;6.87;4.87;;;0.40;59.70;;;;;;5001283;28;20273;-87
2022/03/10 01:59:02;;;;;;;8.10;4.70;;;0.40;59.60;;;;;;5000745;28;20235;-86
2022/03/10 02:01:31;;;;;;;9.33;4.90;;;0.40;60.50;;;;;;5001342;28;20195;-87
2022/03/10 02:03:58;;;;;;;6.57;4.67;;;0.40;60.00;;;;;;4990394;28;20303;-87
2022/03/10 02:06:26;;;;;;;7.43;4.93;;;0.40;59.50;;;;;;5005623;28;20196;-87
2022/03/10 02:11:41;;;;;;;9.13;5.40;;;0.40;60.20;;;;;;4972699;28;20205;-87
2022/03/10 02:19:39;;;;;;;7.13;5.20;;;0.30;60.80;;;;;;4985102;28;20220;-86
2022/03/10 02:22:11;;;;;;;6.37;5.10;;;0.30;60.30;;;;;;4999698;28;20230;-87
2022/03/10 02:28:00;;;;;;;5.77;4.30;;;0.30;62.10;;;;;;4985723;28;20568;-86
2022/03/10 02:30:30;;;;;;;6.50;4.47;;;0.20;61.30;;;;;;4999827;28;20202;-86
2022/03/10 02:32:57;;;;;;;6.20;4.30;;;0.10;61.10;;;;;;5000212;28;20232;-86
2022/03/10 02:35:41;;;;;;;6.37;4.73;;;0.10;61.20;;;;;;4982794;28;20184;-86
2022/03/10 02:38:18;;;;;;;9.30;4.73;;;0.00;62.10;;;;;;4999390;28;20307;-86
2022/03/10 02:40:45;;;;;;;6.30;4.70;;;0.00;64.10;;;;;;4999973;28;20180;-86
2022/03/10 02:43:43;;;;;;;5.90;4.30;;;0.00;64.90;;;;;;4977457;28;20231;-86
2022/03/10 03:07:37;;;;;;;6.23;4.43;;;-0.40;65.00;;;;;;4982728;28;20745;-87
2022/03/10 03:10:04;;;;;;;7.20;4.60;;;-0.30;64.20;;;;;;4984607;28;20260;-89
2022/03/10 03:12:32;;;;;;;6.97;4.47;;;-0.20;64.30;;;;;;4984011;28;20262;-87
2022/03/10 03:14:59;;;;;;;7.57;4.60;;;-0.20;64.30;;;;;;4984355;28;20210;-87
2022/03/10 03:17:26;;;;;;;8.50;5.00;;;-0.30;64.30;;;;;;4985242;28;20224;-87
2022/03/10 03:19:53;;;;;;;6.93;5.03;;;-0.30;66.10;;;;;;4980067;28;20295;-87
2022/03/10 03:22:21;;;;;;;6.20;4.70;;;-0.30;66.00;;;;;;4986185;28;20604;-88
2022/03/10 03:24:49;;;;;;;7.40;5.37;;;-0.40;66.30;;;;;;4986829;28;20287;-87
2022/03/10 03:27:36;;;;;;;7.63;5.50;;;-0.40;66.60;;;;;;4967305;28;20246;-88
2022/03/10 03:30:05;;;;;;;10.53;5.57;;;-0.30;66.40;;;;;;4984788;28;20244;-86
2022/03/10 03:32:33;;;;;;;9.07;5.07;;;-0.20;64.30;;;;;;4983908;28;20236;-86
2022/03/10 03:35:01;;;;;;;7.07;5.03;;;-0.20;64.30;;;;;;4983768;28;20200;-86
2022/03/10 03:37:28;;;;;;;6.73;4.57;;;-0.20;64.30;;;;;;4984390;28;20204;-86
2022/03/10 03:40:11;;;;;;;6.87;5.03;;;-0.30;64.10;;;;;;4983892;28;20271;-86
2022/03/10 03:42:43;;;;;;;6.20;4.70;;;-0.30;64.10;;;;;;4984371;28;20204;-86
2022/03/10 04:04:40;;;;;;;5.73;4.53;;;-0.40;64.10;;;;;;5689579;23;20223;-87
2022/03/10 04:07:08;;;;;;;6.93;5.10;;;-0.40;64.70;;;;;;5004087;28;20253;-86
2022/03/10 04:09:35;;;;;;;7.20;4.90;;;-0.30;64.20;;;;;;4987376;28;20208;-87
2022/03/10 04:12:03;;;;;;;7.50;4.67;;;-0.30;64.10;;;;;;4987825;28;20282;-86
2022/03/10 04:21:28;;;;;;;7.27;4.70;;;-0.30;64.10;;;;;;5005855;28;20188;-88
2022/03/10 04:23:55;;;;;;;6.60;4.37;;;-0.40;64.40;;;;;;5009229;28;20298;-86
2022/03/10 04:26:22;;;;;;;7.93;4.67;;;-0.30;64.30;;;;;;4989141;28;20276;-86
2022/03/10 04:28:50;;;;;;;7.50;4.37;;;-0.40;65.00;;;;;;5006461;28;20341;-87
2022/03/10 04:31:17;;;;;;;6.30;4.77;;;-0.40;66.00;;;;;;5006814;28;20180;-88
2022/03/10 05:25:41;;;;;;;7.13;4.37;;;-0.80;71.30;;;;;;4917963;29;20217;-87
2022/03/10 05:31:38;;;;;;;9.03;4.23;;;-1.10;72.30;;;;;;4950140;28;20226;-87
2022/03/10 05:34:08;;;;;;;7.70;4.77;;;-1.20;74.40;;;;;;4989373;28;20547;-86
2022/03/10 05:36:42;;;;;;;8.20;4.93;;;-1.20;75.20;;;;;;4989312;28;20185;-86
2022/03/10 05:39:09;;;;;;;7.10;4.77;;;-1.10;75.80;;;;;;4989183;28;20184;-86
2022/03/10 05:41:47;;;;;;;6.93;4.43;;;-1.00;75.60;;;;;;4972394;28;20243;-85
2022/03/10 05:44:15;;;;;;;8.30;4.90;;;-0.90;72.40;;;;;;4987958;28;20261;-84
2022/03/10 05:47:03;;;;;;;8.40;4.83;;;-0.90;71.80;;;;;;4989075;28;20227;-85
2022/03/10 05:53:17;;;;;;;12.63;4.67;;;-0.80;71.00;;;;;;4977564;28;20188;-85
2022/03/10 05:56:16;;;;;;;11.87;4.83;;;-0.80;71.50;;;;;;4967661;28;20224;-85
2022/03/10 06:02:34;;;;;;;8.30;4.63;;;-0.80;71.50;;;;;;4894332;29;20341;-86
2022/03/10 06:05:55;;;;;;;10.30;4.70;;;-0.70;71.10;;;;;;4873820;29;20259;-86
2022/03/10 06:08:25;;;;;;;7.27;4.73;;;-0.80;70.30;;;;;;4878366;29;20200;-86
2022/03/10 06:10:52;;;;;;;8.07;5.03;;;-0.80;70.10;;;;;;4889478;29;20221;-86
2022/03/10 06:17:33;;;;;;;9.37;5.07;;;-0.90;71.50;;;;;;4888937;29;20187;-86
2022/03/10 06:37:16;;;;;;;10.03;5.60;;;-0.20;66.90;;;;;;4917282;29;20203;-87
2022/03/10 06:47:00;;;;;;;9.50;5.33;;;-0.10;64.40;;;;;;4986452;28;20210;-87
2022/03/10 06:49:40;;;;;;;11.07;5.80;;;-0.20;66.40;;;;;;5015324;23;20335;-87
2022/03/10 06:52:09;;;;;;;10.40;6.13;;;-0.20;68.30;;;;;;4994708;28;20184;-90
2022/03/10 06:54:38;;;;;;;12.50;6.40;;;-0.10;67.50;;;;;;5007530;28;20207;-88
2022/03/10 06:57:05;;;;;;;9.50;5.80;;;0.00;68.10;;;;;;5020425;28;20220;-88
2022/03/10 06:59:32;;;;;;;13.37;5.60;;;0.10;65.90;;;;;;5022035;28;20201;-87
2022/03/10 07:06:12;;;;;;;13.30;6.60;;;0.20;64.70;;;;;;5003177;28;20625;-87
2022/03/10 07:12:07;;;;;;;14.43;6.07;;;1.00;62.70;;;;;;5005797;28;20187;-87
2022/03/10 07:14:34;;;;;;;11.73;5.97;;;1.20;55.20;;;;;;5006298;28;20291;-87
2022/03/10 07:17:02;;;;;;;11.10;5.73;;;1.40;54.90;;;;;;5001479;28;20253;-87
2022/03/10 07:19:30;;;;;;;10.63;5.20;;;1.50;54.50;;;;;;4986096;28;20208;-87
2022/03/10 07:22:00;;;;;;;9.87;5.50;;;1.70;52.30;;;;;;5001374;28;20189;-88
2022/03/10 07:24:27;;;;;;;8.83;5.10;;;2.00;51.80;;;;;;4997507;28;20234;-88
2022/03/10 07:27:00;;;;;;;10.70;6.00;;;2.20;49.20;;;;;;5018264;28;20203;-88
2022/03/10 07:29:28;;;;;;;10.07;5.73;;;2.40;48.20;;;;;;5018129;28;20233;-88
2022/03/10 07:35:17;;;;;;;7.63;5.77;;;2.50;47.00;;;;;;5021066;28;20202;-87
2022/03/10 07:38:14;;;;;;;9.30;6.20;;;2.50;46.80;;;;;;5019051;28;20188;-87
2022/03/10 07:44:08;;;;;;;9.37;6.00;;;2.90;46.20;;;;;;5021868;28;20234;-87
2022/03/10 07:46:46;;;;;;;10.80;5.97;;;3.00;46.00;;;;;;5029272;28;20190;-87
2022/03/10 07:52:35;;;;;;;9.43;6.00;;;3.70;43.20;;;;;;5023118;28;20592;-87
2022/03/10 07:55:14;;;;;;;8.83;6.37;;;4.10;43.60;;;;;;5022818;28;20179;-88
2022/03/10 07:57:42;;;;;;;7.43;5.73;;;4.40;37.70;;;;;;4990131;28;20206;-86
2022/03/10 08:00:11;;;;;;;8.60;5.90;;;4.70;36.20;;;;;;5020820;28;20268;-86
2022/03/10 08:02:40;;;;;;;9.30;6.70;;;5.00;34.30;;;;;;5004960;28;20230;-87
2022/03/10 08:05:09;;;;;;;10.43;6.43;;;5.20;32.60;;;;;;5025422;28;20207;-86
2022/03/10 08:07:39;;;;;;;12.37;6.33;;;5.30;32.30;;;;;;4995287;28;20194;-87
2022/03/10 08:10:08;;;;;;;9.07;6.17;;;5.20;32.60;;;;;;5024852;28;20267;-88
2022/03/10 08:12:36;;;;;;;8.40;6.07;;;5.40;31.60;;;;;;5005567;28;20195;-88
2022/03/10 08:15:05;;;;;;;10.13;5.70;;;6.00;30.10;;;;;;5021870;28;20285;-88
2022/03/10 08:18:25;;;;;;;10.97;6.00;;;6.20;29.20;;;;;;5021704;28;20577;-88
2022/03/10 08:24:18;;;;;;;9.77;5.50;;;6.40;29.30;;;;;;5022870;28;20586;-88
2022/03/10 08:27:02;;;;;;;8.17;5.43;;;6.70;29.30;;;;;;5024498;28;20195;-88
2022/03/10 08:29:30;;;;;;;11.07;5.60;;;6.70;28.10;;;;;;5015106;28;20204;-86
2022/03/10 08:32:03;;;;;;;6.70;5.50;;;6.20;29.30;;;;;;5022236;28;20198;-88
2022/03/10 08:34:35;;;;;;;8.70;5.87;;;6.30;29.30;;;;;;4987548;28;20223;-91
2022/03/10 08:37:02;;;;;;;9.07;5.33;;;6.50;28.90;;;;;;5007263;28;20188;-87
2022/03/10 08:39:31;;;;;;;8.13;5.30;;;6.70;27.90;;;;;;5002124;28;20232;-88
2022/03/10 08:41:59;;;;;;;10.53;5.63;;;7.10;28.30;;;;;;4997511;28;20538;-87
2022/03/10 08:44:27;;;;;;;6.63;5.32;;;7.30;27.40;;;;;;5022938;28;20215;-88
2022/03/10 08:47:02;;;;;;;7.18;5.57;;;7.30;26.50;;;;;;5026251;28;20184;-87
2022/03/10 09:41:12;;;;;;;6.63;5.38;;;17.50;9.30;;;;;;5002947;28;20226;-86
2022/03/10 09:43:40;;;;;;;6.65;6.05;;;19.30;9.20;;;;;;5001301;28;20227;-86
2022/03/10 09:46:09;;;;;;;7.45;5.82;;;19.50;6.80;;;;;;5006230;28;20206;-88
2022/03/10 09:48:37;;;;;;;6.75;6.05;;;18.30;8.50;;;;;;5000436;28;20224;-91
2022/03/10 09:51:04;;;;;;;6.15;5.55;;;19.80;7.10;;;;;;4993069;28;20634;-86
2022/03/10 09:53:34;;;;;;;6.90;5.93;;;20.10;6.60;;;;;;5000671;28;20233;-89
2022/03/10 09:56:01;;;;;;;6.53;5.88;;;21.40;5.70;;;;;;4995500;28;20196;-86
2022/03/10 09:58:31;;;;;;;6.25;5.65;;;19.60;5.80;;;;;;5003396;28;20322;-85
2022/03/10 10:01:01;;;;;;;6.68;6.05;;;19.60;6.70;;;;;;4999766;28;20196;-85
2022/03/10 10:03:29;;;;;;;6.45;5.82;;;20.30;6.40;;;;;;5000012;28;20236;-87
2022/03/10 10:06:00;;;;;;;6.18;5.57;;;20.50;5.60;;;;;;4995980;28;20203;-85
2022/03/10 10:12:06;;;;;;;6.03;5.43;;;18.10;7.60;;;;;;4980901;28;20207;-89
2022/03/10 10:14:40;;;;;;;6.95;5.53;;;19.30;6.60;;;;;;4988508;28;20220;-88
2022/03/10 14:18:22;;;;;;;7.10;4.75;;;12.00;7.60;;;;;;4984134;28;20271;-89
2022/03/10 14:20:53;;;;;;;9.10;4.95;;;12.00;5.80;;;;;;4981315;28;20185;-89
2022/03/10 14:24:07;;;;;;;12.37;5.17;;;12.00;5.80;;;;;;4983209;28;20263;-91
2022/03/10 14:27:01;;;;;;;6.65;4.38;;;12.10;5.90;;;;;;4975821;28;20265;-90
2022/03/10 14:32:53;;;;;;;6.18;4.53;;;11.90;5.70;;;;;;4996893;28;20267;-89
2022/03/10 14:35:25;;;;;;;6.43;4.35;;;12.00;5.80;;;;;;4984913;28;20196;-89
2022/03/10 14:37:52;;;;;;;6.40;4.45;;;12.00;5.80;;;;;;4983090;28;20228;-90
2022/03/10 14:40:19;;;;;;;11.57;4.60;;;11.80;5.70;;;;;;4982525;28;20636;-89
2022/03/10 14:42:46;;;;;;;8.15;5.07;;;11.70;5.60;;;;;;4980693;28;20228;-89
2022/03/10 15:02:38;;;;;;;5.78;4.43;;;11.80;5.60;;;;;;4991416;28;20191;-86
2022/03/10 15:05:11;;;;;;;8.80;4.22;;;11.70;5.60;;;;;;4983804;28;20228;-88
2022/03/10 15:07:38;;;;;;;8.60;3.90;;;11.60;5.50;;;;;;4983661;28;20319;-87
2022/03/10 15:10:06;;;;;;;5.95;4.35;;;11.50;5.40;;;;;;4993246;28;20268;-89
2022/03/10 15:12:56;;;;;;;6.80;4.05;;;11.50;5.40;;;;;;4966577;28;20232;-87
2022/03/10 15:15:23;;;;;;;10.48;4.30;;;11.50;5.40;;;;;;4992538;28;20224;-87
2022/03/10 15:20:34;;;;;;;5.65;4.25;;;11.60;7.00;;;;;;4989538;28;20200;-86
2022/03/10 15:23:08;;;;;;;6.93;4.80;;;11.60;6.30;;;;;;4936129;28;20243;-87
2022/03/10 15:25:38;;;;;;;5.80;4.55;;;11.50;7.70;;;;;;4988840;28;20231;-87
2022/03/10 15:28:25;;;;;;;5.40;4.43;;;11.50;7.90;;;;;;4983280;28;20248;-86
2022/03/10 15:36:24;;;;;;;9.50;5.43;;;11.50;9.20;;;;;;4980583;28;20196;-91
2022/03/10 15:38:55;;;;;;;8.13;5.15;;;11.30;10.40;;;;;;4976913;28;20232;-88
2022/03/10 15:42:06;;;;;;;9.30;4.97;;;11.20;10.60;;;;;;4958316;28;20224;-87
2022/03/10 15:44:33;;;;;;;7.88;5.18;;;11.30;10.40;;;;;;4990122;28;20224;-86
2022/03/10 15:47:14;;;;;;;7.18;5.32;;;11.20;10.70;;;;;;4987315;28;20203;-87
2022/03/10 15:49:56;;;;;;;10.63;5.68;;;11.10;10.80;;;;;;4986583;28;20283;-87
2022/03/10 15:52:34;;;;;;;7.57;5.90;;;11.00;10.80;;;;;;4970823;28;20197;-85
2022/03/10 15:55:08;;;;;;;6.47;5.30;;;11.00;11.20;;;;;;4969486;29;20274;-87
2022/03/10 15:57:43;;;;;;;10.02;5.95;;;11.00;11.40;;;;;;4951778;28;20235;-86
2022/03/10 16:03:42;;;;;;;7.68;5.20;;;10.90;11.80;;;;;;5004120;28;20550;-85
2022/03/10 16:09:42;;;;;;;8.48;5.57;;;10.80;11.50;;;;;;5002899;28;20191;-87
2022/03/10 16:15:50;;;;;;;8.32;5.70;;;10.70;11.90;;;;;;4982768;28;20276;-86
2022/03/10 16:18:56;;;;;;;8.23;5.32;;;10.60;12.50;;;;;;4968604;28;20578;-86
2022/03/10 16:32:22;;;;;;;5.72;4.60;;;10.40;11.70;;;;;;4968073;28;20193;-86
2022/03/10 16:38:49;;;;;;;6.38;4.75;;;10.20;11.80;;;;;;4973353;28;20220;-86
2022/03/10 17:09:01;;;;;;;9.25;6.35;;;9.30;17.00;;;;;;5212271;23;20694;-87
2022/03/10 17:12:10;;;;;;;8.75;5.88;;;9.20;17.20;;;;;;4987658;28;20192;-88
2022/03/10 17:14:37;;;;;;;10.25;5.80;;;9.10;17.50;;;;;;4985603;28;20224;-87
2022/03/10 17:17:05;;;;;;;8.68;6.03;;;9.00;17.70;;;;;;4987570;28;20220;-87
2022/03/10 17:19:38;;;;;;;8.07;5.72;;;8.90;17.90;;;;;;4988886;28;20512;-89
2022/03/10 17:22:10;;;;;;;9.98;5.50;;;8.80;18.10;;;;;;5002588;28;20278;-87
2022/03/10 17:24:40;;;;;;;11.35;5.65;;;8.70;18.40;;;;;;4999609;28;20231;-86
2022/03/10 17:27:08;;;;;;;8.20;5.32;;;8.60;18.50;;;;;;5000073;28;20290;-86
2022/03/10 17:29:36;;;;;;;12.32;5.80;;;8.60;18.70;;;;;;5001814;28;20592;-86
2022/03/10 17:32:10;;;;;;;10.47;5.13;;;8.50;18.70;;;;;;4987338;28;20189;-86
2022/03/10 17:34:37;;;;;;;7.30;5.07;;;8.40;18.80;;;;;;4996993;28;20212;-87
2022/03/10 17:37:05;;;;;;;8.70;5.17;;;8.30;18.80;;;;;;5003116;28;20180;-85
2022/03/10 17:39:33;;;;;;;10.37;5.30;;;8.20;18.70;;;;;;5001968;28;20223;-84
2022/03/10 17:42:14;;;;;;;8.03;5.13;;;8.20;18.80;;;;;;5002477;28;20207;-87
2022/03/10 17:44:44;;;;;;;7.87;4.93;;;8.10;18.90;;;;;;4980692;28;20717;-87
2022/03/10 17:47:24;;;;;;;8.70;5.13;;;8.00;18.90;;;;;;4989006;28;20191;-87
2022/03/10 17:49:52;;;;;;;9.33;5.30;;;8.00;19.00;;;;;;4999616;28;20223;-88
2022/03/10 17:52:20;;;;;;;6.83;5.20;;;7.90;19.20;;;;;;4985457;28;20207;-85
2022/03/10 17:54:47;;;;;;;7.27;5.10;;;7.80;19.10;;;;;;4993898;28;20344;-89
2022/03/10 17:58:03;;;;;;;24.70;10.47;;;7.80;19.10;;;;;;4984858;28;20205;-86
2022/03/10 18:00:34;;;;;;;6.17;4.53;;;7.70;19.00;;;;;;4984609;28;20617;-84
2022/03/10 18:03:01;;;;;;;6.40;4.63;;;7.60;19.10;;;;;;5005631;28;20283;-84
2022/03/10 18:05:29;;;;;;;6.47;4.50;;;7.50;19.50;;;;;;5007809;28;20275;-86
2022/03/10 18:08:40;;;;;;;9.73;4.47;;;7.50;19.50;;;;;;5009060;28;20250;-86
2022/03/10 18:11:08;;;;;;;6.33;4.10;;;7.40;19.80;;;;;;4996230;28;20215;-83
2022/03/10 18:13:37;;;;;;;8.07;4.43;;;7.30;20.00;;;;;;4978725;28;20648;-83
2022/03/10 18:16:06;;;;;;;7.30;4.60;;;7.30;20.00;;;;;;4993109;28;20197;-87
2022/03/10 18:18:34;;;;;;;8.10;4.13;;;7.20;20.30;;;;;;4993486;28;20291;-85
2022/03/10 18:21:02;;;;;;;6.67;4.47;;;7.10;20.70;;;;;;4993877;28;20279;-84
2022/03/10 18:23:31;;;;;;;8.40;4.17;;;7.10;20.10;;;;;;4990308;28;20201;-84
2022/03/10 18:25:59;;;;;;;7.73;4.80;;;7.10;20.40;;;;;;4981270;28;20219;-85
2022/03/10 18:28:26;;;;;;;8.07;4.77;;;7.00;20.90;;;;;;5001492;28;20198;-85
2022/03/10 18:30:53;;;;;;;8.53;4.83;;;6.90;21.40;;;;;;5001390;28;20192;-85
2022/03/10 18:33:22;;;;;;;6.60;4.60;;;6.90;21.40;;;;;;4980279;28;20204;-86
2022/03/10 18:35:49;;;;;;;6.97;4.27;;;6.90;21.60;;;;;;5002346;28;20559;-85
2022/03/10 18:38:21;;;;;;;5.37;4.03;;;6.80;22.60;;;;;;4979152;28;20219;-84
2022/03/10 18:40:48;;;;;;;6.27;4.33;;;6.80;22.70;;;;;;4993326;28;20188;-85
2022/03/10 18:43:17;;;;;;;7.50;4.03;;;6.70;22.60;;;;;;4970437;28;20629;-84
2022/03/10 18:45:44;;;;;;;9.23;4.57;;;6.60;22.50;;;;;;4994473;28;20224;-83
2022/03/10 18:48:13;;;;;;;5.70;3.67;;;6.50;22.50;;;;;;4992573;28;20222;-85
2022/03/10 18:50:42;;;;;;;7.53;4.17;;;6.60;23.60;;;;;;4975898;28;20200;-85
2022/03/10 18:56:32;;;;;;;5.93;3.70;;;6.50;22.50;;;;;;4998598;28;20195;-83
2022/03/10 18:58:59;;;;;;;6.47;3.70;;;6.40;22.40;;;;;;4959972;28;20219;-83
2022/03/10 19:01:26;;;;;;;5.20;4.10;;;6.30;22.30;;;;;;4997217;28;20195;-83
2022/03/10 19:03:54;;;;;;;5.47;3.87;;;6.30;22.40;;;;;;4988650;28;20243;-85
2022/03/10 19:06:25;;;;;;;7.13;4.30;;;6.30;23.70;;;;;;4998150;28;20208;-87
2022/03/10 19:08:52;;;;;;;5.77;3.80;;;6.20;24.20;;;;;;4999307;28;20228;-86
2022/03/10 19:11:46;;;;;;;5.20;3.80;;;6.20;24.60;;;;;;4998751;28;20549;-85
2022/03/10 19:14:13;;;;;;;5.27;4.00;;;6.10;25.10;;;;;;4989062;28;20286;-86
2022/03/10 19:16:40;;;;;;;5.20;4.00;;;6.10;25.50;;;;;;5002669;28;20207;-85
2022/03/10 19:19:07;;;;;;;6.17;4.40;;;6.10;26.20;;;;;;4992545;28;20542;-85
2022/03/10 19:21:37;;;;;;;6.90;4.40;;;6.10;26.20;;;;;;4986737;28;20279;-85
2022/03/10 19:24:17;;;;;;;6.20;4.60;;;6.00;26.70;;;;;;4985552;28;20224;-85
2022/03/10 19:27:12;;;;;;;6.63;4.33;;;6.00;26.70;;;;;;4985451;28;20211;-85
2022/03/10 19:29:42;;;;;;;6.93;4.97;;;6.00;27.00;;;;;;4994645;28;20243;-85
2022/03/10 19:39:18;;;;;;;9.47;5.03;;;6.00;27.30;;;;;;4987910;28;20179;-87
2022/03/10 19:42:06;;;;;;;9.00;5.37;;;6.00;27.50;;;;;;4967841;28;20659;-91
2022/03/10 21:52:27;;;;;;;20.43;12.90;;;3.90;46.80;;;;;;5963421;23;20291;-88
2022/03/10 22:12:58;;;;;;;22.77;13.27;;;3.50;49.00;;;;;;5003819;28;20214;-88
2022/03/10 23:09:05;;;;;;;22.40;13.77;;;2.50;52.00;;;;;;5008253;28;20195;-88
